createdAt,value
2022-09-05T00:00:12.165Z,17.70
2022-09-05T00:03:24.041Z,17.60
2022-09-05T00:06:15.644Z,17.60
2022-09-05T00:09:45.062Z,17.60
2022-09-05T00:12:18.045Z,17.50
2022-09-05T00:15:29.568Z,17.50
2022-09-05T00:22:10.853Z,17.40
2022-09-05T00:24:32.023Z,17.40
2022-09-05T00:26:39.017Z,17.40
2022-09-05T00:31:08.222Z,17.30
2022-09-05T00:33:20.525Z,17.30
2022-09-05T00:36:43.656Z,17.20
2022-09-05T00:39:47.923Z,17.20
2022-09-05T00:42:31.653Z,17.10
2022-09-05T00:45:06.082Z,17.10
2022-09-05T00:48:03.981Z,17.10
2022-09-05T00:51:34.328Z,17.10
2022-09-05T00:55:27.057Z,17.10
2022-09-05T00:58:44.776Z,17.00
2022-09-05T01:02:06.808Z,17.00
2022-09-05T01:06:29.246Z,17.00
2022-09-05T01:09:41.812Z,16.90
2022-09-05T01:13:15.760Z,17.00
2022-09-05T01:16:36.284Z,17.00
2022-09-05T01:19:33.154Z,17.00
2022-09-05T01:22:50.647Z,17.00
2022-09-05T01:26:20.735Z,17.00
2022-09-05T01:30:12.211Z,16.90
2022-09-05T01:33:29.812Z,16.80
2022-09-05T01:36:34.260Z,16.80
2022-09-05T01:40:14.373Z,16.80
2022-09-05T01:43:53.332Z,16.80
2022-09-05T01:47:03.755Z,16.70
2022-09-05T01:50:24.915Z,16.80
2022-09-05T01:53:26.024Z,16.80
2022-09-05T01:56:53.789Z,16.80
2022-09-05T01:59:58.505Z,16.80
2022-09-05T02:03:07.203Z,16.90
2022-09-05T02:06:34.747Z,17.00
2022-09-05T02:10:11.001Z,17.10
2022-09-05T02:13:43.801Z,17.20
2022-09-05T02:16:47.075Z,17.20
2022-09-05T02:19:31.794Z,17.30
2022-09-05T02:22:20.229Z,17.40
2022-09-05T02:25:27.761Z,17.40
2022-09-05T02:28:58.581Z,17.40
2022-09-05T02:32:09.276Z,17.40
2022-09-05T02:35:14.023Z,17.40
2022-09-05T02:39:09.206Z,17.40
2022-09-05T02:45:13.700Z,17.40
2022-09-05T02:45:25.758Z,17.40
2022-09-05T02:49:13.980Z,17.40
2022-09-05T02:57:23.786Z,17.30
2022-09-05T02:57:39.663Z,17.30
2022-09-05T02:59:35.998Z,17.30
2022-09-05T03:03:03.831Z,17.40
2022-09-05T03:06:47.106Z,17.40
2022-09-05T03:10:54.390Z,17.40
2022-09-05T03:13:59.040Z,17.40
2022-09-05T03:17:11.824Z,17.40
2022-09-05T03:20:15.322Z,17.40
2022-09-05T03:23:34.976Z,17.40
2022-09-05T03:27:07.552Z,17.40
2022-09-05T03:30:15.642Z,17.40
2022-09-05T03:33:55.836Z,17.40
2022-09-05T03:36:47.078Z,17.40
2022-09-05T03:40:36.469Z,17.40
2022-09-05T03:44:23.100Z,17.30
2022-09-05T03:47:45.398Z,17.20
2022-09-05T03:57:14.635Z,17.10
2022-09-05T03:57:20.827Z,17.20
2022-09-05T03:58:42.013Z,17.00
2022-09-05T04:03:09.216Z,17.00
2022-09-05T04:08:24.042Z,16.70
2022-09-05T04:08:24.731Z,16.90
2022-09-05T04:11:24.995Z,16.60
2022-09-05T04:14:11.749Z,16.60
2022-09-05T04:17:11.161Z,16.60
2022-09-05T04:19:55.339Z,16.60
2022-09-05T04:23:37.233Z,16.50
2022-09-05T04:26:59.814Z,16.60
2022-09-05T04:30:39.773Z,16.60
2022-09-05T04:33:36.641Z,16.60
2022-09-05T04:36:27.171Z,16.50
2022-09-05T04:39:29.089Z,16.50
2022-09-05T04:42:05.404Z,16.40
2022-09-05T04:45:07.072Z,16.30
2022-09-05T04:47:52.609Z,16.30
2022-09-05T04:50:25.177Z,16.20
2022-09-05T04:53:33.428Z,16.20
2022-09-05T04:56:21.502Z,16.20
2022-09-05T05:00:56.317Z,16.30
2022-09-05T05:06:08.915Z,16.40
2022-09-05T05:06:18.349Z,16.40
2022-09-05T05:09:19.679Z,16.40
2022-09-05T05:17:54.982Z,16.30
2022-09-05T05:18:14.993Z,16.30
2022-09-05T05:18:39.607Z,16.30
2022-09-05T05:21:27.568Z,16.30
2022-09-05T05:24:13.986Z,16.30
2022-09-05T05:27:09.814Z,16.30
2022-09-05T05:30:07.245Z,16.30
2022-09-05T05:32:51.882Z,16.30
2022-09-05T05:35:33.544Z,16.40
2022-09-05T05:38:37.813Z,16.40
2022-09-05T05:41:35.986Z,16.50
2022-09-05T05:44:36.785Z,16.60
2022-09-05T05:47:31.391Z,16.70
2022-09-05T05:50:44.856Z,16.70
2022-09-05T05:54:09.507Z,16.90
2022-09-05T05:57:35.225Z,16.90
2022-09-05T06:00:38.721Z,17.00
2022-09-05T06:04:10.685Z,17.10
2022-09-05T06:09:11.402Z,17.20
2022-09-05T06:14:53.255Z,17.40
2022-09-05T06:15:03.769Z,17.60
2022-09-05T06:18:04.151Z,17.70
2022-09-05T06:22:06.199Z,17.90
2022-09-05T06:25:27.031Z,18.10
2022-09-05T06:28:37.424Z,18.50
2022-09-05T06:31:44.260Z,18.90
2022-09-05T06:34:59.772Z,19.80
2022-09-05T06:38:51.316Z,21.50
2022-09-05T06:42:42.992Z,22.90
2022-09-05T06:46:04.739Z,24.20
2022-09-05T06:49:28.267Z,25.00
2022-09-05T06:52:29.404Z,26.40
2022-09-05T06:56:00.476Z,26.70
2022-09-05T06:59:42.091Z,27.40
2022-09-05T07:02:59.233Z,27.50
2022-09-05T07:05:50.338Z,28.10
2022-09-05T07:09:36.512Z,27.60
2022-09-05T07:12:32.752Z,28.40
2022-09-05T07:16:08.449Z,29.10
2022-09-05T07:19:15.652Z,28.90
2022-09-05T07:22:47.039Z,28.70
2022-09-05T07:25:37.237Z,28.80
2022-09-05T07:28:28.950Z,29.40
2022-09-05T07:31:38.121Z,29.60
2022-09-05T07:34:31.679Z,29.50
2022-09-05T07:37:37.085Z,29.60
2022-09-05T07:40:26.258Z,29.00
2022-09-05T07:43:44.221Z,29.10
2022-09-05T07:46:40.883Z,28.80
2022-09-05T07:49:20.924Z,29.00
2022-09-05T07:56:56.862Z,28.70
2022-09-05T07:57:13.062Z,29.20
2022-09-05T07:57:52.112Z,28.80
2022-09-05T08:00:29.464Z,30.40
2022-09-05T08:03:15.189Z,30.60
2022-09-05T08:05:55.060Z,30.00
2022-09-05T08:09:21.537Z,30.10
2022-09-05T08:11:48.342Z,30.60
2022-09-05T08:15:24.673Z,30.30
2022-09-05T08:18:29.437Z,30.50
2022-09-05T08:21:22.338Z,31.60
2022-09-05T08:24:40.025Z,31.50
2022-09-05T08:27:22.543Z,32.00
2022-09-05T08:30:25.574Z,31.60
2022-09-05T08:33:19.365Z,32.20
2022-09-05T08:36:37.800Z,31.40
2022-09-05T08:39:11.656Z,31.80
2022-09-05T08:42:07.393Z,32.50
2022-09-05T08:46:43.802Z,32.20
2022-09-05T08:49:16.303Z,31.70
2022-09-05T08:52:28.001Z,32.50
2022-09-05T08:55:25.168Z,32.60
2022-09-05T08:58:43.633Z,32.60
2022-09-05T09:02:47.076Z,32.30
2022-09-05T09:06:12.058Z,32.30
2022-09-05T09:09:27.589Z,32.40
2022-09-05T09:12:31.337Z,32.30
2022-09-05T09:15:26.158Z,31.60
2022-09-05T09:17:56.084Z,31.60
2022-09-05T09:20:33.652Z,31.90
2022-09-05T09:23:32.322Z,32.40
2022-09-05T09:26:25.422Z,32.40
2022-09-05T09:29:12.547Z,32.50
2022-09-05T09:32:26.754Z,32.30
2022-09-05T09:35:33.519Z,32.80
2022-09-05T09:38:41.734Z,33.00
2022-09-05T09:42:02.693Z,32.60
2022-09-05T09:44:52.448Z,32.10
2022-09-05T09:47:59.469Z,32.00
2022-09-05T09:51:32.360Z,31.30
2022-09-05T09:54:24.044Z,31.10
2022-09-05T09:57:44.995Z,29.80
2022-09-05T10:00:24.171Z,30.00
2022-09-05T10:07:08.699Z,29.80
2022-09-05T10:10:51.317Z,29.80
2022-09-05T10:11:41.377Z,29.70
2022-09-05T10:15:12.092Z,29.70
2022-09-05T10:18:26.917Z,28.90
2022-09-05T10:21:42.908Z,29.10
2022-09-05T10:25:28.066Z,29.20
2022-09-05T10:28:46.518Z,29.70
2022-09-05T10:35:00.783Z,29.60
2022-09-05T10:35:20.822Z,29.30
2022-09-05T10:38:10.488Z,29.60
2022-09-05T10:41:20.149Z,29.20
2022-09-05T10:44:02.371Z,29.10
2022-09-05T10:47:39.187Z,29.20
2022-09-05T10:50:32.440Z,29.60
2022-09-05T10:53:39.464Z,29.90
2022-09-05T10:56:40.912Z,29.90
2022-09-05T11:02:21.417Z,30.00
2022-09-05T11:02:49.155Z,30.40
2022-09-05T11:05:38.774Z,30.30
2022-09-05T11:08:41.793Z,29.80
2022-09-05T11:11:34.874Z,29.80
2022-09-05T11:14:57.361Z,29.90
2022-09-05T11:18:10.899Z,29.90
2022-09-05T11:21:31.497Z,30.10
2022-09-05T11:24:58.158Z,30.30
2022-09-05T11:27:50.879Z,30.30
2022-09-05T11:30:38.669Z,30.20
2022-09-05T11:39:49.018Z,30.10
2022-09-05T11:39:51.370Z,29.90
2022-09-05T11:41:32.467Z,29.80
2022-09-05T11:44:36.132Z,30.00
2022-09-05T11:47:59.612Z,30.30
2022-09-05T11:51:26.069Z,30.40
2022-09-05T11:54:22.145Z,30.50
2022-09-05T11:58:44.188Z,30.40
2022-09-05T12:01:57.134Z,30.40
2022-09-05T12:05:50.724Z,30.00
2022-09-05T12:08:47.077Z,29.50
2022-09-05T12:11:52.818Z,29.70
2022-09-05T12:14:59.964Z,29.50
2022-09-05T12:18:24.346Z,29.60
2022-09-05T12:22:16.353Z,29.60
2022-09-05T12:25:31.009Z,29.80
2022-09-05T12:29:03.203Z,29.80
2022-09-05T12:32:31.046Z,29.80
2022-09-05T12:36:07.912Z,29.80
2022-09-05T12:40:56.295Z,29.80
2022-09-05T12:41:46.221Z,29.60
2022-09-05T12:45:37.110Z,29.50
2022-09-05T12:49:04.590Z,29.60
2022-09-05T12:52:00.211Z,30.00
2022-09-05T12:55:03.351Z,30.10
2022-09-05T13:02:55.015Z,30.10
2022-09-05T13:03:13.270Z,30.00
2022-09-05T13:04:18.183Z,30.00
2022-09-05T13:07:09.765Z,29.70
2022-09-05T13:13:40.954Z,29.50
2022-09-05T13:14:48.321Z,29.20
2022-09-05T13:16:24.319Z,29.50
2022-09-05T13:19:09.242Z,29.50
2022-09-05T13:21:50.473Z,29.70
2022-09-05T13:24:34.446Z,29.20
2022-09-05T13:27:28.193Z,28.70
2022-09-05T13:32:36.091Z,28.50
2022-09-05T13:38:00.415Z,28.30
2022-09-05T13:38:17.482Z,28.30
2022-09-05T13:40:27.345Z,28.40
2022-09-05T13:43:12.793Z,28.40
2022-09-05T13:46:17.354Z,28.40
2022-09-05T13:49:27.183Z,28.40
2022-09-05T13:52:38.274Z,28.60
2022-09-05T13:55:28.601Z,29.00
2022-09-05T13:58:52.394Z,29.20
2022-09-05T14:02:28.000Z,29.40
2022-09-05T14:05:35.882Z,30.00
2022-09-05T14:13:01.167Z,29.90
2022-09-05T14:16:02.004Z,30.10
2022-09-05T14:19:07.656Z,30.00
2022-09-05T14:21:42.143Z,30.20
2022-09-05T14:24:28.018Z,30.60
2022-09-05T14:27:12.014Z,29.90
2022-09-05T14:29:55.367Z,29.20
2022-09-05T14:37:36.374Z,28.90
2022-09-05T14:37:49.196Z,28.60
2022-09-05T14:41:15.142Z,28.40
2022-09-05T14:44:29.936Z,28.40
2022-09-05T14:48:13.622Z,28.60
2022-09-05T14:51:33.462Z,28.70
2022-09-05T15:02:43.731Z,28.80
2022-09-05T15:02:53.580Z,28.90
2022-09-05T15:03:12.684Z,28.80
2022-09-05T15:05:50.581Z,29.30
2022-09-05T15:11:24.078Z,29.70
2022-09-05T15:12:19.930Z,29.70
2022-09-05T15:14:21.420Z,29.30
2022-09-05T15:17:05.815Z,29.10
2022-09-05T15:20:06.750Z,28.90
2022-09-05T15:22:42.051Z,28.50
2022-09-05T15:25:24.008Z,28.50
2022-09-05T15:27:52.275Z,28.60
2022-09-05T15:30:36.502Z,28.60
2022-09-05T15:33:36.082Z,28.90
2022-09-05T15:36:09.883Z,29.00
2022-09-05T15:38:55.652Z,29.20
2022-09-05T15:41:31.881Z,29.50
2022-09-05T15:44:13.318Z,29.60
2022-09-05T15:47:09.837Z,29.60
2022-09-05T15:50:07.052Z,29.70
2022-09-05T15:52:57.235Z,29.80
2022-09-05T15:55:33.978Z,30.20
2022-09-05T15:58:20.671Z,30.10
2022-09-05T16:00:57.587Z,30.00
2022-09-05T16:06:10.714Z,29.80
2022-09-05T16:10:28.638Z,29.70
2022-09-05T16:10:42.750Z,29.60
2022-09-05T16:13:10.471Z,29.30
2022-09-05T16:20:31.632Z,29.10
2022-09-05T16:23:23.409Z,28.50
2022-09-05T16:23:25.484Z,29.10
2022-09-05T16:24:59.287Z,28.40
2022-09-05T16:28:03.803Z,28.50
2022-09-05T16:30:37.551Z,28.70
2022-09-05T16:33:30.841Z,28.70
2022-09-05T16:36:27.391Z,28.40
2022-09-05T16:39:13.341Z,28.20
2022-09-05T16:42:03.936Z,28.10
2022-09-05T16:44:53.515Z,27.80
2022-09-05T16:48:14.496Z,27.80
2022-09-05T16:51:28.756Z,27.70
2022-09-05T16:54:57.160Z,27.60
2022-09-05T16:57:39.753Z,27.50
2022-09-05T17:00:10.860Z,27.40
2022-09-05T17:03:41.369Z,27.30
2022-09-05T17:07:13.376Z,27.20
2022-09-05T17:09:46.144Z,27.20
2022-09-05T17:12:33.651Z,27.00
2022-09-05T17:15:26.300Z,27.00
2022-09-05T17:18:24.197Z,26.90
2022-09-05T17:21:02.979Z,26.90
2022-09-05T17:29:18.643Z,27.00
2022-09-05T17:29:33.608Z,27.00
2022-09-05T17:32:52.303Z,27.10
2022-09-05T17:36:23.353Z,27.10
2022-09-05T17:39:49.350Z,27.00
2022-09-05T17:42:59.749Z,26.90
2022-09-05T17:46:22.672Z,26.70
2022-09-05T17:48:59.992Z,26.40
2022-09-05T17:51:50.797Z,26.30
2022-09-05T17:54:33.796Z,26.20
2022-09-05T17:57:27.319Z,26.00
2022-09-05T18:00:22.353Z,25.90
2022-09-05T18:02:57.081Z,25.80
2022-09-05T18:06:04.571Z,25.70
2022-09-05T18:08:50.320Z,25.60
2022-09-05T18:11:25.851Z,25.30
2022-09-05T18:17:36.411Z,25.20
2022-09-05T18:19:49.425Z,25.10
2022-09-05T18:22:35.646Z,25.00
2022-09-05T18:25:30.712Z,24.90
2022-09-05T18:28:41.691Z,24.80
2022-09-05T18:31:41.039Z,24.70
2022-09-05T18:34:19.236Z,24.60
2022-09-05T18:36:53.772Z,24.40
2022-09-05T18:39:39.180Z,24.30
2022-09-05T18:42:33.358Z,24.20
2022-09-05T18:45:17.806Z,24.10
2022-09-05T18:48:02.418Z,24.10
2022-09-05T18:50:41.479Z,24.10
2022-09-05T18:53:13.496Z,24.10
2022-09-05T18:56:31.539Z,24.10
2022-09-05T18:59:35.104Z,24.20
2022-09-05T19:02:59.007Z,24.20
2022-09-05T19:05:33.055Z,24.30
2022-09-05T19:08:28.908Z,24.30
2022-09-05T19:11:28.362Z,24.20
2022-09-05T19:14:12.790Z,24.20
2022-09-05T19:16:48.569Z,24.10
2022-09-05T19:19:24.846Z,24.10
2022-09-05T19:22:36.034Z,24.00
2022-09-05T19:24:50.239Z,24.00
2022-09-05T19:27:55.403Z,23.90
2022-09-05T19:36:44.622Z,23.80
2022-09-05T19:36:54.642Z,23.70
2022-09-05T19:37:15.105Z,23.60
2022-09-05T19:45:29.354Z,23.50
2022-09-05T19:47:28.584Z,23.50
2022-09-05T19:47:56.182Z,23.50
2022-09-05T19:48:27.275Z,23.40
2022-09-05T19:51:17.492Z,23.20
2022-09-05T19:54:04.674Z,23.10
2022-09-05T19:56:46.774Z,23.00
2022-09-05T19:59:41.660Z,22.80
2022-09-05T20:02:27.157Z,22.70
2022-09-05T20:05:07.214Z,22.50
2022-09-05T20:07:48.991Z,22.40
2022-09-05T20:10:35.577Z,22.30
2022-09-05T20:13:25.538Z,22.20
2022-09-05T20:15:53.790Z,22.10
2022-09-05T20:18:43.144Z,21.90
2022-09-05T20:21:27.408Z,21.90
2022-09-05T20:23:59.891Z,21.90
2022-09-05T20:26:33.969Z,21.80
2022-09-05T20:29:09.365Z,21.70
2022-09-05T20:31:37.980Z,21.70
2022-09-05T20:34:30.222Z,21.60
2022-09-05T20:43:09.689Z,21.60
2022-09-05T20:43:29.625Z,21.50
2022-09-05T20:43:35.429Z,21.40
2022-09-05T20:47:26.029Z,21.40
2022-09-05T20:54:05.763Z,21.30
2022-09-05T20:54:24.832Z,21.20
2022-09-05T20:55:38.697Z,21.10
2022-09-05T20:58:32.055Z,21.10
2022-09-05T21:01:23.491Z,21.00
2022-09-05T21:04:05.829Z,20.90
2022-09-05T21:06:42.301Z,20.80
2022-09-05T21:09:26.077Z,20.90
2022-09-05T21:12:00.260Z,20.80
2022-09-05T21:14:29.921Z,20.80
2022-09-05T21:17:15.181Z,20.70
2022-09-05T21:19:53.749Z,20.70
2022-09-05T21:22:24.124Z,20.60
2022-09-05T21:25:16.325Z,20.70
2022-09-05T21:28:04.135Z,20.60
2022-09-05T21:30:40.660Z,20.50
2022-09-05T21:33:21.798Z,20.50
2022-09-05T21:36:06.176Z,20.50
2022-09-05T21:38:43.142Z,20.40
2022-09-05T21:41:12.821Z,20.40
2022-09-05T21:47:34.599Z,20.40
2022-09-05T21:47:40.383Z,20.30
2022-09-05T21:49:24.193Z,20.40
2022-09-05T21:51:53.415Z,20.50
2022-09-05T21:59:14.951Z,20.60
2022-09-05T21:59:16.301Z,20.60
2022-09-05T22:00:16.854Z,20.60
2022-09-05T22:02:49.308Z,20.50
2022-09-05T22:05:17.760Z,20.40
2022-09-05T22:07:48.692Z,20.30
2022-09-05T22:10:16.358Z,20.20
2022-09-05T22:12:44.781Z,20.20
2022-09-05T22:15:27.980Z,20.30
2022-09-05T22:18:17.483Z,20.20
2022-09-05T22:21:32.253Z,20.10
2022-09-05T22:23:49.448Z,20.00
2022-09-05T22:26:21.711Z,20.00
2022-09-05T22:28:49.587Z,20.10
2022-09-05T22:31:20.657Z,20.20
2022-09-05T22:33:51.010Z,20.20
2022-09-05T22:36:19.442Z,20.30
2022-09-05T22:38:48.162Z,20.30
2022-09-05T22:41:15.924Z,20.40
2022-09-05T22:43:46.576Z,20.50
2022-09-05T22:46:15.225Z,20.50
2022-09-05T22:48:42.936Z,20.70
2022-09-05T22:51:11.172Z,20.70
2022-09-05T22:53:39.984Z,20.70
2022-09-05T22:56:10.269Z,20.70
2022-09-05T22:58:45.377Z,20.60
2022-09-05T23:01:13.497Z,20.50
2022-09-05T23:03:41.051Z,20.40
2022-09-05T23:06:11.139Z,20.40
2022-09-05T23:08:38.947Z,20.40
2022-09-05T23:11:15.473Z,20.50
2022-09-05T23:13:44.242Z,20.50
2022-09-05T23:16:12.835Z,20.50
2022-09-05T23:18:42.161Z,20.40
2022-09-05T23:21:15.690Z,20.40
2022-09-05T23:23:44.224Z,20.30
2022-09-05T23:26:15.624Z,20.20
2022-09-05T23:28:45.058Z,20.10
2022-09-05T23:31:14.330Z,20.00
2022-09-05T23:33:42.898Z,20.00
2022-09-05T23:36:13.991Z,20.00
2022-09-05T23:38:44.189Z,20.10
2022-09-05T23:41:16.045Z,20.20
2022-09-05T23:43:44.978Z,20.20
2022-09-05T23:46:12.638Z,20.20
2022-09-05T23:48:40.638Z,20.20
2022-09-05T23:51:13.329Z,20.20
2022-09-05T23:53:42.053Z,20.20
2022-09-05T23:56:12.721Z,20.20
2022-09-05T23:58:41.139Z,20.20
